createdAt,value
2023-01-17T00:02:08.904Z,98149.81
2023-01-17T00:04:54.652Z,98127.28
2023-01-17T00:07:41.803Z,98144.63
2023-01-17T00:10:10.445Z,98157.00
2023-01-17T00:12:37.716Z,98167.16
2023-01-17T00:15:06.083Z,98156.63
2023-01-17T00:17:33.139Z,98160.00
2023-01-17T00:20:20.147Z,98170.94
2023-01-17T00:23:07.002Z,98156.75
2023-01-17T00:25:59.011Z,98168.63
2023-01-17T00:28:27.482Z,98162.75
2023-01-17T00:30:54.417Z,98157.75
2023-01-17T00:33:22.640Z,98172.34
2023-01-17T00:35:50.074Z,98157.97
2023-01-17T00:38:22.301Z,98157.97
2023-01-17T00:40:50.189Z,98162.06
2023-01-17T00:43:41.285Z,98149.66
2023-01-17T00:46:27.195Z,98161.06
2023-01-17T00:49:12.776Z,98154.44
2023-01-17T00:51:58.143Z,98138.31
2023-01-17T00:54:43.554Z,98143.59
2023-01-17T00:57:29.092Z,98134.72
2023-01-17T01:00:14.728Z,98130.13
2023-01-17T01:03:00.374Z,98133.00
2023-01-17T01:05:45.930Z,98125.94
2023-01-17T01:08:35.736Z,98124.94
2023-01-17T01:11:23.769Z,98123.31
2023-01-17T01:14:09.531Z,98111.59
2023-01-17T01:16:55.366Z,98109.69
2023-01-17T01:19:41.026Z,98127.66
2023-01-17T01:22:26.482Z,98141.78
2023-01-17T01:25:11.703Z,98128.03
2023-01-17T01:27:59.012Z,98106.34
2023-01-17T01:30:44.893Z,98099.16
2023-01-17T01:33:20.670Z,98097.41
2023-01-17T01:35:49.392Z,98103.69
2023-01-17T01:38:18.155Z,98103.97
2023-01-17T01:40:50.446Z,98090.97
2023-01-17T01:43:20.784Z,98074.88
2023-01-17T01:45:57.341Z,98058.97
2023-01-17T01:48:27.337Z,98068.78
2023-01-17T01:50:54.608Z,98059.75
2023-01-17T01:53:21.968Z,98055.50
2023-01-17T01:55:51.205Z,98047.75
2023-01-17T01:58:32.189Z,98038.25
2023-01-17T02:00:59.321Z,98026.88
2023-01-17T02:03:30.165Z,98018.25
2023-01-17T02:06:03.716Z,98009.88
2023-01-17T02:08:31.454Z,98030.28
2023-01-17T02:10:58.704Z,98039.56
2023-01-17T02:13:25.653Z,98036.53
2023-01-17T02:16:03.311Z,98043.28
2023-01-17T02:18:33.122Z,98039.91
2023-01-17T02:21:23.329Z,98051.81
2023-01-17T02:23:53.060Z,98055.94
2023-01-17T02:26:44.813Z,98061.56
2023-01-17T02:29:45.745Z,98053.31
2023-01-17T02:32:31.362Z,98050.78
2023-01-17T02:35:28.337Z,98036.97
2023-01-17T02:38:24.537Z,98039.56
2023-01-17T02:41:07.119Z,98045.63
2023-01-17T02:43:36.353Z,98058.59
2023-01-17T02:46:03.849Z,98073.13
2023-01-17T02:48:34.344Z,98080.00
2023-01-17T02:51:21.679Z,98086.38
2023-01-17T02:54:07.265Z,98087.06
2023-01-17T02:56:48.918Z,98027.22
2023-01-17T02:59:46.678Z,98052.38
2023-01-17T03:02:28.586Z,98045.81
2023-01-17T03:05:13.876Z,98043.41
2023-01-17T03:07:44.488Z,98070.53
2023-01-17T03:10:14.954Z,98070.34
2023-01-17T03:12:43.221Z,98063.47
2023-01-17T03:15:13.079Z,98068.91
2023-01-17T03:17:44.400Z,98075.19
2023-01-17T03:20:11.214Z,98066.31
2023-01-17T03:22:38.055Z,98049.59
2023-01-17T03:25:06.178Z,98036.31
2023-01-17T03:27:33.418Z,98037.94
2023-01-17T03:30:00.304Z,98035.13
2023-01-17T03:32:27.343Z,98041.38
2023-01-17T03:34:54.269Z,98040.56
2023-01-17T03:37:21.099Z,98022.31
2023-01-17T03:39:48.036Z,98008.25
2023-01-17T03:42:14.980Z,98010.06
2023-01-17T03:44:41.785Z,97998.47
2023-01-17T03:47:12.155Z,98007.03
2023-01-17T03:49:39.880Z,98014.28
2023-01-17T03:52:07.625Z,98001.47
2023-01-17T03:54:34.536Z,98001.66
2023-01-17T03:57:01.713Z,97991.88
2023-01-17T03:59:28.615Z,97990.81
2023-01-17T04:01:55.483Z,97970.63
2023-01-17T04:04:22.727Z,97970.69
2023-01-17T04:06:49.613Z,97960.84
2023-01-17T04:09:16.493Z,97967.28
2023-01-17T04:11:43.312Z,97965.53
2023-01-17T04:14:10.172Z,97956.66
2023-01-17T04:16:43.566Z,97978.50
2023-01-17T04:19:13.300Z,97977.25
2023-01-17T04:21:40.248Z,97978.53
2023-01-17T04:24:07.435Z,97999.72
2023-01-17T04:26:34.535Z,97980.19
2023-01-17T04:29:01.450Z,97985.56
2023-01-17T04:31:28.352Z,97966.81
2023-01-17T04:33:55.346Z,97953.22
2023-01-17T04:36:28.075Z,97978.34
2023-01-17T04:38:54.984Z,97949.47
2023-01-17T04:41:21.865Z,97983.72
2023-01-17T04:43:48.698Z,97972.91
2023-01-17T04:46:15.899Z,97974.97
2023-01-17T04:48:42.778Z,97976.38
2023-01-17T04:51:09.857Z,97968.28
2023-01-17T04:53:36.821Z,97979.00
2023-01-17T04:56:03.786Z,97972.69
2023-01-17T04:58:31.498Z,97991.97
2023-01-17T05:01:06.299Z,97976.34
2023-01-17T05:03:34.386Z,97984.03
2023-01-17T05:06:01.792Z,97982.28
2023-01-17T05:08:28.811Z,97986.16
2023-01-17T05:10:57.185Z,97996.47
2023-01-17T05:13:24.118Z,97992.13
2023-01-17T05:15:51.026Z,97982.28
2023-01-17T05:18:18.820Z,97990.81
2023-01-17T05:20:45.857Z,97988.72
2023-01-17T05:23:12.996Z,97979.38
2023-01-17T05:25:44.546Z,97982.59
2023-01-17T05:28:13.014Z,97983.06
2023-01-17T05:30:40.575Z,97988.69
2023-01-17T05:33:09.458Z,97972.28
2023-01-17T05:35:48.951Z,97989.19
2023-01-17T05:38:15.830Z,98007.25
2023-01-17T05:40:42.775Z,97997.19
2023-01-17T05:43:10.069Z,98012.91
2023-01-17T05:45:37.138Z,98028.22
2023-01-17T05:48:04.831Z,98043.84
2023-01-17T05:50:35.903Z,98040.44
2023-01-17T05:53:11.475Z,98052.81
2023-01-17T05:55:39.336Z,98043.66
2023-01-17T05:58:07.713Z,98049.75
2023-01-17T06:00:34.900Z,98063.44
2023-01-17T06:03:01.793Z,98055.38
2023-01-17T06:05:30.159Z,98064.06
2023-01-17T06:07:57.581Z,98061.66
2023-01-17T06:10:25.537Z,98061.50
2023-01-17T06:13:01.989Z,98048.03
2023-01-17T06:15:29.829Z,98081.50
2023-01-17T06:17:57.012Z,98084.22
2023-01-17T06:20:23.871Z,98085.84
2023-01-17T06:22:50.883Z,98100.16
2023-01-17T06:25:17.745Z,98105.63
2023-01-17T06:27:44.728Z,98106.94
2023-01-17T06:30:12.248Z,98118.84
2023-01-17T06:32:39.198Z,98118.84
2023-01-17T06:35:06.496Z,98116.09
2023-01-17T06:37:33.474Z,98107.75
2023-01-17T06:40:00.443Z,98108.19
2023-01-17T06:42:27.352Z,98092.41
2023-01-17T06:44:54.231Z,98102.72
2023-01-17T06:47:21.257Z,98089.38
2023-01-17T06:49:48.083Z,98098.53
2023-01-17T06:52:15.139Z,98091.31
2023-01-17T06:54:42.342Z,98087.13
2023-01-17T06:57:09.216Z,98086.34
2023-01-17T06:59:36.206Z,98080.56
2023-01-17T07:02:03.224Z,98096.66
2023-01-17T07:04:30.264Z,98088.78
2023-01-17T07:06:57.369Z,98085.22
2023-01-17T07:09:24.443Z,98095.03
2023-01-17T07:11:52.551Z,98084.72
2023-01-17T07:14:19.368Z,98092.13
2023-01-17T07:16:49.227Z,98079.88
2023-01-17T07:19:16.148Z,98080.81
2023-01-17T07:21:43.066Z,98083.03
2023-01-17T07:24:10.406Z,98093.97
2023-01-17T07:26:40.763Z,98080.59
2023-01-17T07:29:07.719Z,98078.75
2023-01-17T07:31:36.864Z,98071.59
2023-01-17T07:34:04.246Z,98077.47
2023-01-17T07:36:31.265Z,98080.06
2023-01-17T07:38:58.169Z,98067.34
2023-01-17T07:41:25.278Z,98066.50
2023-01-17T07:43:52.202Z,98064.69
2023-01-17T07:46:19.576Z,98072.06
2023-01-17T07:48:46.412Z,98075.31
2023-01-17T07:51:13.383Z,98098.91
2023-01-17T07:53:41.632Z,98092.53
2023-01-17T07:56:08.760Z,98086.34
2023-01-17T07:58:36.346Z,98082.34
2023-01-17T08:01:09.547Z,98091.59
2023-01-17T08:03:40.097Z,98095.94
2023-01-17T08:06:21.093Z,98081.38
2023-01-17T08:08:48.298Z,98082.75
2023-01-17T08:11:15.989Z,98081.53
2023-01-17T08:13:42.946Z,98084.19
2023-01-17T08:16:11.016Z,98066.31
2023-01-17T08:18:38.039Z,98072.31
2023-01-17T08:21:05.355Z,98075.19
2023-01-17T08:23:32.269Z,98077.22
2023-01-17T08:26:02.414Z,98075.09
2023-01-17T08:28:29.429Z,98076.03
2023-01-17T08:30:56.339Z,98062.03
2023-01-17T08:33:23.240Z,98076.03
2023-01-17T08:35:54.362Z,98083.22
2023-01-17T08:38:23.972Z,98095.59
2023-01-17T08:40:51.213Z,98097.72
2023-01-17T08:43:18.256Z,98096.38
2023-01-17T08:45:46.068Z,98083.34
2023-01-17T08:48:13.138Z,98080.97
2023-01-17T08:50:40.024Z,98092.97
2023-01-17T08:53:07.043Z,98108.00
2023-01-17T08:55:38.912Z,98120.44
2023-01-17T08:58:05.745Z,98115.28
2023-01-17T09:00:32.775Z,98116.38
2023-01-17T09:02:59.713Z,98130.53
2023-01-17T09:05:27.050Z,98126.41
2023-01-17T09:07:55.704Z,98119.88
2023-01-17T09:10:23.742Z,98140.66
2023-01-17T09:12:50.791Z,98130.47
2023-01-17T09:15:20.345Z,98120.44
2023-01-17T09:17:47.918Z,98130.03
2023-01-17T09:20:15.191Z,98126.03
2023-01-17T09:22:42.149Z,98122.69
2023-01-17T09:25:09.249Z,98115.31
2023-01-17T09:27:36.426Z,98130.31
2023-01-17T09:30:04.823Z,98123.75
2023-01-17T09:32:31.846Z,98110.75
2023-01-17T09:35:01.113Z,98099.88
2023-01-17T09:37:28.135Z,98097.09
2023-01-17T09:39:55.139Z,98093.63
2023-01-17T09:42:33.590Z,98084.56
2023-01-17T09:45:00.701Z,98092.31
2023-01-17T09:47:43.637Z,98077.06
2023-01-17T09:50:37.637Z,98089.97
2023-01-17T09:53:12.645Z,98096.59
2023-01-17T09:55:53.921Z,98100.28
2023-01-17T09:58:27.837Z,98106.31
2023-01-17T10:00:55.000Z,98113.00
2023-01-17T10:03:47.000Z,98106.28
2023-01-17T10:06:29.536Z,98082.78
2023-01-17T10:09:03.862Z,98095.31
2023-01-17T10:11:58.820Z,98093.72
2023-01-17T10:15:03.242Z,98085.44
2023-01-17T10:17:41.093Z,98087.13
2023-01-17T10:20:49.639Z,98083.19
2023-01-17T10:23:36.083Z,98076.97
2023-01-17T10:26:15.126Z,98066.38
2023-01-17T10:28:48.802Z,98069.66
2023-01-17T10:31:27.319Z,98074.25
2023-01-17T10:33:56.916Z,98071.88
2023-01-17T10:36:38.950Z,98063.97
2023-01-17T10:39:35.308Z,98080.28
2023-01-17T10:42:22.098Z,98086.19
2023-01-17T10:45:30.624Z,98072.91
2023-01-17T10:48:09.858Z,98066.09
2023-01-17T10:50:50.471Z,98064.50
2023-01-17T10:53:41.758Z,98066.22
2023-01-17T10:56:13.842Z,98053.53
2023-01-17T10:58:40.822Z,98057.25
2023-01-17T11:01:17.078Z,98059.34
2023-01-17T11:03:48.929Z,98050.72
2023-01-17T11:06:25.697Z,98045.56
2023-01-17T11:08:55.048Z,98039.91
2023-01-17T11:11:25.964Z,98043.22
2023-01-17T11:13:55.686Z,98038.31
2023-01-17T11:16:28.770Z,98040.72
2023-01-17T11:19:23.746Z,98035.38
2023-01-17T11:21:53.743Z,98035.59
2023-01-17T11:25:03.973Z,98024.91
2023-01-17T11:27:36.249Z,98045.16
2023-01-17T11:30:15.993Z,98047.59
2023-01-17T11:32:57.991Z,98048.13
2023-01-17T11:35:44.230Z,98027.97
2023-01-17T11:38:21.636Z,98036.75
2023-01-17T11:40:49.834Z,98037.88
2023-01-17T11:43:22.694Z,98033.59
2023-01-17T11:46:13.765Z,98025.75
2023-01-17T11:48:40.837Z,98022.47
2023-01-17T11:51:25.015Z,98016.94
2023-01-17T11:53:55.892Z,98019.38
2023-01-17T11:56:37.162Z,98025.00
2023-01-17T11:59:43.700Z,98014.72
2023-01-17T12:02:35.806Z,98020.34
2023-01-17T12:05:58.374Z,98021.06
2023-01-17T12:08:44.208Z,98023.78
2023-01-17T12:11:35.989Z,98034.03
2023-01-17T12:14:21.432Z,98030.28
2023-01-17T12:17:20.588Z,98025.81
2023-01-17T12:19:54.361Z,98027.78
2023-01-17T12:22:34.182Z,98028.28
2023-01-17T12:25:22.937Z,98022.34
2023-01-17T12:28:16.719Z,97988.84
2023-01-17T12:31:14.552Z,98016.66
2023-01-17T12:34:16.875Z,98028.63
2023-01-17T12:37:04.398Z,98021.88
2023-01-17T12:39:37.481Z,98034.91
2023-01-17T12:42:24.179Z,98035.00
2023-01-17T12:45:06.920Z,98022.25
2023-01-17T12:47:41.837Z,98015.84
2023-01-17T12:50:37.316Z,98028.81
2023-01-17T12:53:41.696Z,98022.53
2023-01-17T12:56:24.458Z,97980.03
2023-01-17T12:59:33.073Z,98024.03
2023-01-17T13:02:04.307Z,98023.69
2023-01-17T13:04:58.121Z,98017.72
2023-01-17T13:07:44.965Z,98021.22
2023-01-17T13:10:33.659Z,98019.25
2023-01-17T13:13:11.907Z,98020.59
2023-01-17T13:15:40.674Z,98014.13
2023-01-17T13:18:17.412Z,98008.16
2023-01-17T13:21:06.242Z,98027.63
2023-01-17T13:23:38.814Z,98029.56
2023-01-17T13:26:20.914Z,98016.88
2023-01-17T13:29:08.341Z,98020.88
2023-01-17T13:31:49.644Z,98010.88
2023-01-17T13:34:41.451Z,98013.50
2023-01-17T13:37:32.651Z,98011.88
2023-01-17T13:40:28.574Z,98018.84
2023-01-17T13:43:00.282Z,98029.09
2023-01-17T13:45:36.127Z,98013.13
2023-01-17T13:48:12.274Z,98031.66
2023-01-17T13:50:41.977Z,98028.91
2023-01-17T13:53:37.155Z,98030.28
2023-01-17T13:56:19.244Z,98030.28
2023-01-17T13:58:50.263Z,98025.41
2023-01-17T14:01:23.535Z,98016.81
2023-01-17T14:03:50.502Z,98019.47
2023-01-17T14:06:36.332Z,98018.66
2023-01-17T14:09:26.775Z,98012.56
2023-01-17T14:12:02.537Z,98031.34
2023-01-17T14:14:44.575Z,98031.59
2023-01-17T14:17:25.661Z,98032.25
2023-01-17T14:19:57.771Z,98027.41
2023-01-17T14:22:27.386Z,98036.06
2023-01-17T14:25:10.053Z,98028.88
2023-01-17T14:27:43.073Z,98034.25
2023-01-17T14:30:32.830Z,98046.69
2023-01-17T14:33:01.177Z,98035.94
2023-01-17T14:35:32.849Z,98023.53
2023-01-17T14:38:05.639Z,98034.44
2023-01-17T14:40:34.454Z,98045.66
2023-01-17T14:43:12.507Z,98040.91
2023-01-17T14:45:41.282Z,98034.28
2023-01-17T14:48:17.993Z,98033.91
2023-01-17T14:50:46.899Z,98028.72
2023-01-17T14:53:13.798Z,98042.38
2023-01-17T14:55:56.546Z,98038.09
2023-01-17T14:58:34.704Z,98021.88
2023-01-17T15:01:03.183Z,98039.69
2023-01-17T15:03:34.083Z,98035.41
2023-01-17T15:06:11.494Z,98030.75
2023-01-17T15:08:38.607Z,98025.13
2023-01-17T15:11:10.602Z,98032.59
2023-01-17T15:13:44.624Z,98033.94
2023-01-17T15:16:26.091Z,98032.59
2023-01-17T15:18:54.887Z,98016.59
2023-01-17T15:21:25.547Z,98022.81
2023-01-17T15:24:11.108Z,98017.13
2023-01-17T15:26:43.275Z,98017.38
2023-01-17T15:29:38.765Z,98023.16
2023-01-17T15:32:07.518Z,98015.72
2023-01-17T15:34:54.417Z,98014.13
2023-01-17T15:40:24.101Z,98013.03
2023-01-17T15:42:55.005Z,98005.56
2023-01-17T15:45:28.869Z,97964.28
2023-01-17T15:48:01.939Z,98017.75
2023-01-17T15:50:32.916Z,98018.47
2023-01-17T15:53:06.730Z,98010.31
2023-01-17T15:55:39.444Z,98017.44
2023-01-17T16:01:18.089Z,98007.00
2023-01-17T16:03:59.081Z,98009.38
2023-01-17T16:06:45.753Z,98010.03
2023-01-17T16:09:23.632Z,98010.19
2023-01-17T16:11:56.072Z,97999.72
2023-01-17T16:14:23.269Z,98008.16
2023-01-17T16:16:53.776Z,98011.53
2023-01-17T16:19:21.865Z,98015.66
2023-01-17T16:21:51.111Z,98028.03
2023-01-17T16:24:18.702Z,98002.03
2023-01-17T16:26:47.415Z,98019.53
2023-01-17T16:29:14.691Z,98025.25
2023-01-17T16:31:42.116Z,98024.53
2023-01-17T16:34:12.533Z,98035.84
2023-01-17T16:36:39.613Z,98037.88
2023-01-17T16:39:10.162Z,98042.97
2023-01-17T16:41:44.447Z,98047.59
2023-01-17T16:44:12.484Z,98051.97
2023-01-17T16:46:40.625Z,98053.38
2023-01-17T16:49:08.578Z,98057.31
2023-01-17T16:51:35.549Z,98054.38
2023-01-17T16:54:02.605Z,98068.88
2023-01-17T16:56:38.682Z,98077.06
2023-01-17T16:59:05.694Z,98074.22
2023-01-17T17:01:32.689Z,98075.38
2023-01-17T17:03:59.768Z,98073.69
2023-01-17T17:06:26.767Z,98061.84
2023-01-17T17:08:53.738Z,98060.41
2023-01-17T17:11:24.075Z,98071.81
2023-01-17T17:13:52.004Z,98065.41
2023-01-17T17:16:34.018Z,98076.78
2023-01-17T17:19:03.726Z,98067.97
2023-01-17T17:21:32.016Z,98069.06
2023-01-17T17:24:00.928Z,98078.19
2023-01-17T17:26:31.647Z,98076.16
2023-01-17T17:28:58.670Z,98077.94
2023-01-17T17:31:26.720Z,98063.94
2023-01-17T17:33:57.509Z,98058.69
2023-01-17T17:36:24.541Z,98061.78
2023-01-17T17:38:54.659Z,98057.88
2023-01-17T17:41:27.230Z,98051.47
2023-01-17T17:43:54.991Z,98061.69
2023-01-17T17:46:24.148Z,98058.84
2023-01-17T17:48:51.055Z,98050.53
2023-01-17T17:51:26.875Z,98052.84
2023-01-17T17:53:56.749Z,98034.06
2023-01-17T17:56:24.351Z,98040.03
2023-01-17T17:58:51.820Z,98057.69
2023-01-17T18:01:19.767Z,98052.25
2023-01-17T18:03:46.678Z,98050.00
2023-01-17T18:06:14.113Z,98043.50
2023-01-17T18:08:41.315Z,98039.94
2023-01-17T18:11:15.091Z,98032.22
2023-01-17T18:13:43.179Z,98023.78
2023-01-17T18:16:10.230Z,98031.44
2023-01-17T18:18:39.892Z,98029.03
2023-01-17T18:21:06.899Z,98024.34
2023-01-17T18:23:33.797Z,98015.63
2023-01-17T18:26:00.811Z,98004.63
2023-01-17T18:28:27.939Z,98004.97
2023-01-17T18:30:54.881Z,97996.34
2023-01-17T18:33:21.904Z,98000.91
2023-01-17T18:35:56.819Z,98006.13
2023-01-17T18:38:28.874Z,98006.25
2023-01-17T18:40:55.749Z,98006.78
2023-01-17T18:43:26.066Z,98000.31
2023-01-17T18:45:53.531Z,97983.25
2023-01-17T18:48:20.474Z,97992.88
2023-01-17T18:50:55.676Z,97997.25
2023-01-17T18:53:22.652Z,98000.72
2023-01-17T18:55:56.965Z,97988.09
2023-01-17T18:58:25.276Z,97987.75
2023-01-17T19:00:53.418Z,97993.81
2023-01-17T19:03:25.524Z,97981.50
2023-01-17T19:05:52.393Z,97983.78
2023-01-17T19:08:19.786Z,97983.25
2023-01-17T19:10:48.415Z,97970.91
2023-01-17T19:13:15.382Z,97990.72
2023-01-17T19:15:42.211Z,97989.19
2023-01-17T19:18:09.115Z,97957.84
2023-01-17T19:20:36.149Z,97977.72
2023-01-17T19:23:03.245Z,97977.63
2023-01-17T19:25:30.504Z,97977.88
2023-01-17T19:27:58.349Z,97971.09
2023-01-17T19:30:25.372Z,97960.84
2023-01-17T19:32:52.979Z,97970.69
2023-01-17T19:35:22.530Z,97960.72
2023-01-17T19:37:55.043Z,97976.28
2023-01-17T19:40:40.072Z,97971.56
2023-01-17T19:43:08.294Z,97978.25
2023-01-17T19:45:35.306Z,97974.00
2023-01-17T19:48:02.265Z,97966.97
2023-01-17T19:50:33.368Z,97956.97
2023-01-17T19:53:03.389Z,97942.00
2023-01-17T19:55:30.312Z,97948.47
2023-01-17T19:57:57.810Z,97922.09
2023-01-17T20:00:30.099Z,97921.59
2023-01-17T20:02:57.374Z,97911.28
2023-01-17T20:05:24.514Z,97920.13
2023-01-17T20:07:51.376Z,97916.06
2023-01-17T20:10:19.116Z,97924.72
2023-01-17T20:12:47.128Z,97921.00
2023-01-17T20:15:14.130Z,97915.47
2023-01-17T20:17:41.044Z,97896.88
2023-01-17T20:20:12.853Z,97889.59
2023-01-17T20:22:46.126Z,97903.53
2023-01-17T20:25:13.176Z,97903.25
2023-01-17T20:27:44.532Z,97917.72
2023-01-17T20:30:20.280Z,97933.63
2023-01-17T20:32:47.916Z,97921.66
2023-01-17T20:35:16.280Z,97929.84
2023-01-17T20:37:43.414Z,97927.66
2023-01-17T20:40:12.286Z,97934.28
2023-01-17T20:42:39.521Z,97923.91
2023-01-17T20:45:07.656Z,97919.91
2023-01-17T20:47:34.763Z,97909.22
2023-01-17T20:50:04.026Z,97904.78
2023-01-17T20:52:31.040Z,97915.31
2023-01-17T20:54:57.991Z,97896.59
2023-01-17T20:57:25.043Z,97898.84
2023-01-17T20:59:52.438Z,97905.97
2023-01-17T21:02:19.495Z,97894.06
2023-01-17T21:04:46.470Z,97890.34
2023-01-17T21:07:13.480Z,97898.03
2023-01-17T21:09:42.828Z,97927.22
2023-01-17T21:12:09.801Z,97916.28
2023-01-17T21:14:37.729Z,97913.28
2023-01-17T21:17:07.466Z,97910.03
2023-01-17T21:19:34.330Z,97918.81
2023-01-17T21:22:01.557Z,97906.22
2023-01-17T21:24:29.408Z,97908.69
2023-01-17T21:26:57.008Z,97912.25
2023-01-17T21:29:28.811Z,97898.63
2023-01-17T21:31:56.339Z,97906.53
2023-01-17T21:34:25.432Z,97912.84
2023-01-17T21:36:52.570Z,97904.00
2023-01-17T21:39:19.945Z,97895.56
2023-01-17T21:41:49.705Z,97883.97
2023-01-17T21:44:19.855Z,97875.47
2023-01-17T21:46:47.711Z,97888.34
2023-01-17T21:49:14.973Z,97876.81
2023-01-17T21:51:55.298Z,97873.16
2023-01-17T21:54:50.189Z,97890.38
2023-01-17T21:57:38.581Z,97883.47
2023-01-17T22:00:08.531Z,97849.63
2023-01-17T22:02:38.625Z,97855.59
2023-01-17T22:05:06.059Z,97859.69
2023-01-17T22:07:33.567Z,97862.38
2023-01-17T22:10:00.555Z,97859.53
2023-01-17T22:12:27.461Z,97852.06
2023-01-17T22:14:55.079Z,97863.19
2023-01-17T22:17:22.270Z,97866.38
2023-01-17T22:19:49.128Z,97854.63
2023-01-17T22:22:16.134Z,97854.13
2023-01-17T22:24:42.956Z,97841.75
2023-01-17T22:27:09.975Z,97838.19
2023-01-17T22:29:38.057Z,97837.81
2023-01-17T22:32:05.710Z,97836.66
2023-01-17T22:34:33.075Z,97833.91
2023-01-17T22:37:00.586Z,97842.69
2023-01-17T22:39:34.821Z,97837.59
2023-01-17T22:42:01.693Z,97832.31
2023-01-17T22:44:28.615Z,97835.06
2023-01-17T22:46:55.539Z,97839.69
2023-01-17T22:49:23.601Z,97845.66
2023-01-17T22:51:51.041Z,97855.31
2023-01-17T22:54:20.856Z,97837.97
2023-01-17T22:56:48.859Z,97846.09
2023-01-17T22:59:16.560Z,97843.78
2023-01-17T23:01:43.496Z,97835.25
2023-01-17T23:04:14.271Z,97835.31
2023-01-17T23:06:42.651Z,97832.47
2023-01-17T23:09:12.486Z,97825.34
2023-01-17T23:11:41.227Z,97838.59
2023-01-17T23:14:24.692Z,97833.06
2023-01-17T23:17:21.647Z,97840.63
2023-01-17T23:19:54.685Z,97834.34
2023-01-17T23:22:27.041Z,97833.50
2023-01-17T23:24:55.366Z,97836.25
2023-01-17T23:27:49.955Z,97836.75
2023-01-17T23:30:20.040Z,97826.22
2023-01-17T23:32:52.164Z,97831.75
2023-01-17T23:35:21.675Z,97821.88
2023-01-17T23:38:07.681Z,97834.00
2023-01-17T23:40:36.806Z,97840.88
2023-01-17T23:43:23.241Z,97825.72
2023-01-17T23:45:52.080Z,97826.22
2023-01-17T23:48:19.686Z,97838.88
2023-01-17T23:50:48.332Z,97835.88
2023-01-17T23:53:23.070Z,97836.91
2023-01-17T23:55:52.069Z,97830.88
2023-01-17T23:58:20.890Z,97838.88
